Hatsu Ethic — VQFS4 — position and weather

sailwx.info

Track history (hours):
 
Tides and Currents Weather Stations Pressure Air Temp Water Temp Dewpoint Dewpoint Depression Visibility Wind Speed Wind Dir Waves Ship Positions

Hatsu Ethic

Last reported at 2017-Jun-16 23:47 UTC. Time now 2017-Jun-27 01:40 UTC.
Position N 38°24' W 128°19'.
Warning: this ship's position is 10 days out of date.

Type: Cargo ship. MMSI: 235603000.

Date/timePositionNaut miles runAvg speedWind from/ knotsBaromVisibWave heightAir tempDewpointWater temp
2017-Jun-16 23:47N 38°24' W 128°19'414.0
2017-Jun-16 23:30N 38°22' W 128°15'1013.8
2017-Jun-16 22:49N 38°17' W 128°05'413.8
2017-Jun-16 22:30N 38°14' W 128°00'713.5
2017-Jun-16 22:00N 38°11' W 127°53'812.8
2017-Jun-16 21:22N 38°10' W 127°43'1012.9
2017-Jun-16 20:35N 38°10' W 127°30'112.7
2017-Jun-16 20:30N 38°10' W 127°29'612.6
2017-Jun-16 20:00N 38°10' W 127°21'612.8
2017-Jun-16 19:30N 38°09' W 127°12'712.9
2017-Jun-16 18:57N 38°09' W 127°04'613.1
2017-Jun-16 18:30N 38°09' W 126°56'812.8
2017-Jun-16 17:55N 38°09' W 126°47'513.0
2017-Jun-16 17:30N 38°09' W 126°40'713.1
2017-Jun-16 17:00N 38°09' W 126°31'713.1
2017-Jun-16 16:29N 38°09' W 126°23'613.3
2017-Jun-16 16:00N 38°09' W 126°15'813.2
2017-Jun-16 15:24N 38°09' W 126°05'613.5
2017-Jun-16 14:59N 38°09' W 125°57'913.4
2017-Jun-16 14:21N 38°09' W 125°47'1613.6
2017-Jun-16 13:11N 38°10' W 125°26'713.4
2017-Jun-16 12:41N 38°09' W 125°18'313.5
2017-Jun-16 12:29N 38°09' W 125°15'813.5
2017-Jun-16 11:54N 38°09' W 125°05'2413.5
2017-Jun-16 10:05N 38°09' W 124°33'212.9
2017-Jun-16 09:58N 38°09' W 124°31'2013.4
2017-Jun-16 08:30N 38°10' W 124°06'1212.7
2017-Jun-16 07:32N 38°09' W 123°51'012.1
2017-Jun-16 07:30N 38°09' W 123°50'713.0
2017-Jun-16 07:00N 38°10' W 123°42'713.5
2017-Jun-16 06:30N 38°09' W 123°33'713.1
2017-Jun-16 06:00N 38°09' W 123°25'612.1
2017-Jun-16 05:30N 38°07' W 123°18'713.8
2017-Jun-16 05:00N 38°02' W 123°12'713.4
2017-Jun-16 04:30N 37°57' W 123°06'713.7
2017-Jun-16 04:00N 37°54' W 122°58'713.8
2017-Jun-16 03:30N 37°50' W 122°51'713.8
2017-Jun-16 03:00N 37°47' W 122°44'4 8.7
2017-Jun-16 02:30N 37°46' W 122°38'713.8
2017-Jun-16 02:00N 37°49' W 122°30'510.4
2017-Jun-16 01:30N 37°50' W 122°24'3 5.5
2017-Jun-16 00:59N 37°49' W 122°20'0 0.0
2017-Jun-16 00:29N 37°49' W 122°20'0 0.0
2017-Jun-15 23:59N 37°49' W 122°20'0 0.0
2017-Jun-15 23:29N 37°49' W 122°20'0 0.0
2017-Jun-15 22:59N 37°49' W 122°20'0 0.0
2017-Jun-15 22:28N 37°49' W 122°20'0 0.0
2017-Jun-15 21:59N 37°49' W 122°20'0 0.0
2017-Jun-15 21:28N 37°49' W 122°20'0 0.0
2017-Jun-15 20:58N 37°49' W 122°20'0 0.0
2017-Jun-15 20:29N 37°49' W 122°20'0 0.0
2017-Jun-15 19:59N 37°49' W 122°20'0 0.0
2017-Jun-15 19:29N 37°49' W 122°20'0 0.0
2017-Jun-15 18:59N 37°49' W 122°20'0 0.0
2017-Jun-15 18:29N 37°49' W 122°20'0 0.0
2017-Jun-15 17:58N 37°49' W 122°20'0 0.0
2017-Jun-15 17:29N 37°49' W 122°20'0 0.0
2017-Jun-15 16:59N 37°49' W 122°20'0 0.0
2017-Jun-15 16:29N 37°49' W 122°20'0 0.1
2017-Jun-15 15:58N 37°48' W 122°20'0 0.1
2017-Jun-15 15:29N 37°49' W 122°20'0 0.1
2017-Jun-15 14:58N 37°48' W 122°20'0 0.1
2017-Jun-15 13:58N 37°49' W 122°20'0 0.0
2017-Jun-15 13:28N 37°49' W 122°20'0 0.0
2017-Jun-15 12:59N 37°49' W 122°20'0 0.0
2017-Jun-15 12:29N 37°49' W 122°20'0 0.0
2017-Jun-15 11:59N 37°49' W 122°20'0 0.0
2017-Jun-15 11:29N 37°49' W 122°20'0 0.0
2017-Jun-15 10:59N 37°49' W 122°20'0 0.0
2017-Jun-15 10:28N 37°49' W 122°20'0 0.0
2017-Jun-15 09:58N 37°49' W 122°20'0 0.0
2017-Jun-15 09:28N 37°49' W 122°20'0 0.0
2017-Jun-15 08:58N 37°49' W 122°20'0 0.0
2017-Jun-15 08:28N 37°49' W 122°20'0 0.0
2017-Jun-15 07:59N 37°49' W 122°20'0 0.1
2017-Jun-15 07:29N 37°48' W 122°20'0 0.1
2017-Jun-15 06:59N 37°49' W 122°20'0 0.0
2017-Jun-15 06:29N 37°49' W 122°20'0 0.0
2017-Jun-15 05:58N 37°49' W 122°20'0 0.0
2017-Jun-15 05:28N 37°49' W 122°20'0 0.0
2017-Jun-15 04:58N 37°48' W 122°20'0 0.0
2017-Jun-15 04:29N 37°49' W 122°20'0 0.0
2017-Jun-15 03:59N 37°49' W 122°20'0 0.0
2017-Jun-15 03:29N 37°49' W 122°20'0 0.0
2017-Jun-15 02:58N 37°49' W 122°20'0 0.0
2017-Jun-15 02:28N 37°49' W 122°20'0 0.0
2017-Jun-15 01:59N 37°49' W 122°20'0 0.0
2017-Jun-15 01:28N 37°49' W 122°20'0 0.0
2017-Jun-15 00:58N 37°49' W 122°20'0 0.0
2017-Jun-15 00:28N 37°49' W 122°20'0 0.0
2017-Jun-14 23:58N 37°49' W 122°20'0 0.1
2017-Jun-14 23:30N 37°49' W 122°20'0 0.3
2017-Jun-14 23:00N 37°49' W 122°20'5 9.2
2017-Jun-14 22:30N 37°49' W 122°26'815.6
2017-Jun-14 22:01N 37°47' W 122°35'510.1
2017-Jun-14 21:30N 37°43' W 122°40'5 9.7
2017-Jun-14 21:00N 37°39' W 122°39'816.6
2017-Jun-14 20:30N 37°30' W 122°39'918.6
2017-Jun-14 20:00N 37°21' W 122°39'918.4
2017-Jun-14 19:30N 37°12' W 122°39'918.5
2017-Jun-14 19:00N 37°03' W 122°36'918.8
2017-Jun-14 18:30N 36°54' W 122°32'918.9
2017-Jun-14 18:00N 36°45' W 122°27'1019.1
2017-Jun-14 17:30N 36°37' W 122°22'1019.5
2017-Jun-14 17:00N 36°28' W 122°17'1019.3
2017-Jun-14 16:30N 36°19' W 122°12'918.7
2017-Jun-14 16:00N 36°11' W 122°07'918.3
2017-Jun-14 15:30N 36°03' W 122°02'918.2
2017-Jun-14 15:00N 35°54' W 121°57'918.3
2017-Jun-14 14:30N 35°46' W 121°51'1918.7
2017-Jun-14 13:30N 35°31' W 121°39'1019.4
2017-Jun-14 13:00N 35°22' W 121°33'1019.3
2017-Jun-14 12:31N 35°14' W 121°27'918.9
2017-Jun-14 12:00N 35°06' W 121°21'1019.1
2017-Jun-14 11:31N 34°58' W 121°15'919.0
2017-Jun-14 11:01N 34°50' W 121°09'1019.0
2017-Jun-14 10:30N 34°42' W 121°03'1019.0
2017-Jun-14 10:00N 34°33' W 120°56'918.6
2017-Jun-14 09:30N 34°26' W 120°49'918.4
2017-Jun-14 08:59N 34°23' W 120°38'918.2
2017-Jun-14 08:30N 34°21' W 120°28'919.4
2017-Jun-14 08:01N 34°18' W 120°17'1020.5
2017-Jun-14 07:30N 34°16' W 120°05'1021.0
2017-Jun-14 07:00N 34°13' W 119°53'1019.8
2017-Jun-14 06:30N 34°10' W 119°41'1020.3
2017-Jun-14 06:00N 34°08' W 119°29'1019.5
2017-Jun-14 05:29N 34°05' W 119°18'817.4
2017-Jun-14 05:00N 34°01' W 119°09'715.0
2017-Jun-14 04:31N 33°57' W 119°01'612.1
2017-Jun-14 04:00N 33°54' W 118°55'611.6
2017-Jun-14 03:31N 33°51' W 118°48'611.6
2017-Jun-14 03:01N 33°49' W 118°42'611.7
2017-Jun-14 02:31N 33°46' W 118°36'611.6
2017-Jun-14 02:00N 33°43' W 118°30'611.8
2017-Jun-14 01:30N 33°40' W 118°24'611.2
2017-Jun-14 01:01N 33°38' W 118°17'5 9.5
2017-Jun-14 00:31N 33°43' W 118°15'2 4.0
2017-Jun-13 23:58N 33°45' W 118°16'0 0.0
2017-Jun-13 23:25N 33°45' W 118°16'0 0.0
2017-Jun-13 22:58N 33°45' W 118°16'0 0.0
2017-Jun-13 22:28N 33°45' W 118°16'0 0.0
2017-Jun-13 21:58N 33°45' W 118°16'0 0.0
2017-Jun-13 21:13N 33°45' W 118°16'0 0.0
2017-Jun-13 20:55N 33°45' W 118°16'0 0.0
2017-Jun-13 20:25N 33°45' W 118°16'0 0.0
2017-Jun-13 19:55N 33°45' W 118°16'0 0.0
2017-Jun-13 19:25N 33°45' W 118°16'0 0.0
2017-Jun-13 18:55N 33°45' W 118°16'0 0.0
2017-Jun-13 18:28N 33°45' W 118°16'0 0.0
2017-Jun-13 17:55N 33°45' W 118°16'0 0.0
2017-Jun-13 17:19N 33°45' W 118°16'0 0.0
2017-Jun-13 14:49N 33°45' W 118°16'0 0.0
2017-Jun-13 12:49N 33°45' W 118°16'0 0.0
2017-Jun-13 12:07N 33°45' W 118°16'0 0.0
2017-Jun-13 11:37N 33°45' W 118°16'0 0.0
2017-Jun-13 10:37N 33°45' W 118°16'0 0.0
2017-Jun-13 10:25N 33°45' W 118°16'0 0.0
2017-Jun-13 09:55N 33°45' W 118°16'0 0.0
2017-Jun-13 09:25N 33°45' W 118°16'0 0.0
2017-Jun-13 08:31N 33°45' W 118°16'0 0.0
2017-Jun-13 06:25N 33°45' W 118°16'0 0.0
2017-Jun-13 05:55N 33°45' W 118°16'0 0.0
2017-Jun-13 05:25N 33°45' W 118°16'0 0.0
2017-Jun-13 04:55N 33°45' W 118°16'0 0.0
2017-Jun-13 04:16N 33°45' W 118°16'0 0.0
2017-Jun-13 03:55N 33°45' W 118°16'0 0.0
2017-Jun-13 03:25N 33°45' W 118°16'0 0.0
2017-Jun-13 02:55N 33°45' W 118°16'0 0.0
2017-Jun-13 02:19N 33°45' W 118°16'0 0.0
2017-Jun-13 01:58N 33°45' W 118°16'0 0.0
2017-Jun-13 01:28N 33°45' W 118°16'0 0.0
2017-Jun-13 00:55N 33°45' W 118°16'0 0.0
2017-Jun-13 00:19N 33°45' W 118°16'0 0.0
2017-Jun-12 23:58N 33°45' W 118°16'0 0.0
2017-Jun-12 23:28N 33°45' W 118°16'0 0.0
2017-Jun-12 22:55N 33°45' W 118°16'0 0.0
2017-Jun-12 22:28N 33°45' W 118°16'0 0.0
2017-Jun-12 21:55N 33°45' W 118°16'0 0.0
2017-Jun-12 20:49N 33°45' W 118°16'0 0.0
2017-Jun-12 18:25N 33°45' W 118°16'0 0.0
2017-Jun-11 12:32N 33°45' W 118°16'0 0.9
2017-Jun-11 12:13N 33°45' W 118°16'1 2.6
2017-Jun-11 11:45N 33°44' W 118°16'2 5.8
2017-Jun-11 11:30N 33°43' W 118°15'4 7.2
2017-Jun-11 10:57N 33°39' W 118°15'3 7.9
2017-Jun-11 10:30N 33°36' W 118°18'510.6
2017-Jun-11 10:00N 33°36' W 118°25'510.6
2017-Jun-11 09:30N 33°36' W 118°31'511.0
2017-Jun-11 09:00N 33°37' W 118°38'611.1
2017-Jun-11 08:31N 33°37' W 118°44'611.0
2017-Jun-11 08:00N 33°37' W 118°51'611.0
2017-Jun-11 07:31N 33°38' W 118°58'611.0
2017-Jun-11 07:00N 33°38' W 119°04'612.7
2017-Jun-11 06:30N 33°38' W 119°12'714.4
2017-Jun-11 06:00N 33°38' W 119°20'714.4
2017-Jun-11 05:30N 33°38' W 119°29'815.8
2017-Jun-11 05:00N 33°38' W 119°39'916.4
2017-Jun-11 04:29N 33°38' W 119°49'816.0
2017-Jun-11 04:00N 33°38' W 119°58'916.3
2017-Jun-11 03:27N 33°38' W 120°09'715.8
2017-Jun-11 02:59N 33°38' W 120°18'815.9
2017-Jun-11 02:29N 33°38' W 120°27'816.3
2017-Jun-11 02:01N 33°38' W 120°37'816.8
2017-Jun-11 01:30N 33°38' W 120°47'917.5
2017-Jun-11 01:00N 33°38' W 120°57'817.0
2017-Jun-11 00:31N 33°38' W 121°07'916.9
2017-Jun-11 00:00N 33°38' W 121°18'817.3
2017-Jun-10 23:30N 33°38' W 121°28'917.4
2017-Jun-10 23:00N 33°38' W 121°38'917.2
2017-Jun-10 22:29N 33°38' W 121°49'1116.8
2017-Jun-10 21:50N 33°38' W 122°02'916.8
2017-Jun-10 21:18N 33°38' W 122°13'617.1
2017-Jun-10 20:58N 33°38' W 122°20'1617.2
2017-Jun-10 20:02N 33°38' W 122°39'216.8
2017-Jun-10 19:55N 33°38' W 122°42'717.1
2017-Jun-10 19:30N 33°38' W 122°50'2417.6
2017-Jun-10 18:08N 33°38' W 123°19'  
Track history (hours):
 
Tides and Currents Weather Stations Pressure Air Temp Water Temp Dewpoint Dewpoint Depression Visibility Wind Speed Wind Dir Waves Ship Positions

Hatsu Ethic

Last reported at 2017-Jun-16 23:47 UTC. Time now 2017-Jun-27 01:40 UTC.
Position N 38°24' W 128°19'.
Warning: this ship's position is 10 days out of date.

Type: Cargo ship. MMSI: 235603000.

Date/timePositionNaut miles runAvg speedWind from/ knotsBaromVisibWave heightAir tempDewpointWater temp
2017-Jun-16 23:47N 38°24' W 128°19'414.0
2017-Jun-16 23:30N 38°22' W 128°15'1013.8
2017-Jun-16 22:49N 38°17' W 128°05'413.8
2017-Jun-16 22:30N 38°14' W 128°00'713.5
2017-Jun-16 22:00N 38°11' W 127°53'812.8
2017-Jun-16 21:22N 38°10' W 127°43'1012.9
2017-Jun-16 20:35N 38°10' W 127°30'112.7
2017-Jun-16 20:30N 38°10' W 127°29'612.6
2017-Jun-16 20:00N 38°10' W 127°21'612.8
2017-Jun-16 19:30N 38°09' W 127°12'712.9
2017-Jun-16 18:57N 38°09' W 127°04'613.1
2017-Jun-16 18:30N 38°09' W 126°56'812.8
2017-Jun-16 17:55N 38°09' W 126°47'513.0
2017-Jun-16 17:30N 38°09' W 126°40'713.1
2017-Jun-16 17:00N 38°09' W 126°31'713.1
2017-Jun-16 16:29N 38°09' W 126°23'613.3
2017-Jun-16 16:00N 38°09' W 126°15'813.2
2017-Jun-16 15:24N 38°09' W 126°05'613.5
2017-Jun-16 14:59N 38°09' W 125°57'913.4
2017-Jun-16 14:21N 38°09' W 125°47'1613.6
2017-Jun-16 13:11N 38°10' W 125°26'713.4
2017-Jun-16 12:41N 38°09' W 125°18'313.5
2017-Jun-16 12:29N 38°09' W 125°15'813.5
2017-Jun-16 11:54N 38°09' W 125°05'2413.5
2017-Jun-16 10:05N 38°09' W 124°33'212.9
2017-Jun-16 09:58N 38°09' W 124°31'2013.4
2017-Jun-16 08:30N 38°10' W 124°06'1212.7
2017-Jun-16 07:32N 38°09' W 123°51'012.1
2017-Jun-16 07:30N 38°09' W 123°50'713.0
2017-Jun-16 07:00N 38°10' W 123°42'713.5
2017-Jun-16 06:30N 38°09' W 123°33'713.1
2017-Jun-16 06:00N 38°09' W 123°25'612.1
2017-Jun-16 05:30N 38°07' W 123°18'713.8
2017-Jun-16 05:00N 38°02' W 123°12'713.4
2017-Jun-16 04:30N 37°57' W 123°06'713.7
2017-Jun-16 04:00N 37°54' W 122°58'713.8
2017-Jun-16 03:30N 37°50' W 122°51'713.8
2017-Jun-16 03:00N 37°47' W 122°44'4 8.7
2017-Jun-16 02:30N 37°46' W 122°38'713.8
2017-Jun-16 02:00N 37°49' W 122°30'510.4
2017-Jun-16 01:30N 37°50' W 122°24'3 5.5
2017-Jun-16 00:59N 37°49' W 122°20'0 0.0
2017-Jun-16 00:29N 37°49' W 122°20'0 0.0
2017-Jun-15 23:59N 37°49' W 122°20'0 0.0
2017-Jun-15 23:29N 37°49' W 122°20'0 0.0
2017-Jun-15 22:59N 37°49' W 122°20'0 0.0
2017-Jun-15 22:28N 37°49' W 122°20'0 0.0
2017-Jun-15 21:59N 37°49' W 122°20'0 0.0
2017-Jun-15 21:28N 37°49' W 122°20'0 0.0
2017-Jun-15 20:58N 37°49' W 122°20'0 0.0
2017-Jun-15 20:29N 37°49' W 122°20'0 0.0
2017-Jun-15 19:59N 37°49' W 122°20'0 0.0
2017-Jun-15 19:29N 37°49' W 122°20'0 0.0
2017-Jun-15 18:59N 37°49' W 122°20'0 0.0
2017-Jun-15 18:29N 37°49' W 122°20'0 0.0
2017-Jun-15 17:58N 37°49' W 122°20'0 0.0
2017-Jun-15 17:29N 37°49' W 122°20'0 0.0
2017-Jun-15 16:59N 37°49' W 122°20'0 0.0
2017-Jun-15 16:29N 37°49' W 122°20'0 0.1
2017-Jun-15 15:58N 37°48' W 122°20'0 0.1
2017-Jun-15 15:29N 37°49' W 122°20'0 0.1
2017-Jun-15 14:58N 37°48' W 122°20'0 0.1
2017-Jun-15 13:58N 37°49' W 122°20'0 0.0
2017-Jun-15 13:28N 37°49' W 122°20'0 0.0
2017-Jun-15 12:59N 37°49' W 122°20'0 0.0
2017-Jun-15 12:29N 37°49' W 122°20'0 0.0
2017-Jun-15 11:59N 37°49' W 122°20'0 0.0
2017-Jun-15 11:29N 37°49' W 122°20'0 0.0
2017-Jun-15 10:59N 37°49' W 122°20'0 0.0
2017-Jun-15 10:28N 37°49' W 122°20'0 0.0
2017-Jun-15 09:58N 37°49' W 122°20'0 0.0
2017-Jun-15 09:28N 37°49' W 122°20'0 0.0
2017-Jun-15 08:58N 37°49' W 122°20'0 0.0
2017-Jun-15 08:28N 37°49' W 122°20'0 0.0
2017-Jun-15 07:59N 37°49' W 122°20'0 0.1
2017-Jun-15 07:29N 37°48' W 122°20'0 0.1
2017-Jun-15 06:59N 37°49' W 122°20'0 0.0
2017-Jun-15 06:29N 37°49' W 122°20'0 0.0
2017-Jun-15 05:58N 37°49' W 122°20'0 0.0
2017-Jun-15 05:28N 37°49' W 122°20'0 0.0
2017-Jun-15 04:58N 37°48' W 122°20'0 0.0
2017-Jun-15 04:29N 37°49' W 122°20'0 0.0
2017-Jun-15 03:59N 37°49' W 122°20'0 0.0
2017-Jun-15 03:29N 37°49' W 122°20'0 0.0
2017-Jun-15 02:58N 37°49' W 122°20'0 0.0
2017-Jun-15 02:28N 37°49' W 122°20'0 0.0
2017-Jun-15 01:59N 37°49' W 122°20'0 0.0
2017-Jun-15 01:28N 37°49' W 122°20'0 0.0
2017-Jun-15 00:58N 37°49' W 122°20'0 0.0
2017-Jun-15 00:28N 37°49' W 122°20'0 0.0
2017-Jun-14 23:58N 37°49' W 122°20'0 0.1
2017-Jun-14 23:30N 37°49' W 122°20'0 0.3
2017-Jun-14 23:00N 37°49' W 122°20'5 9.2
2017-Jun-14 22:30N 37°49' W 122°26'815.6
2017-Jun-14 22:01N 37°47' W 122°35'510.1
2017-Jun-14 21:30N 37°43' W 122°40'5 9.7
2017-Jun-14 21:00N 37°39' W 122°39'816.6
2017-Jun-14 20:30N 37°30' W 122°39'918.6
2017-Jun-14 20:00N 37°21' W 122°39'918.4
2017-Jun-14 19:30N 37°12' W 122°39'918.5
2017-Jun-14 19:00N 37°03' W 122°36'918.8
2017-Jun-14 18:30N 36°54' W 122°32'918.9
2017-Jun-14 18:00N 36°45' W 122°27'1019.1
2017-Jun-14 17:30N 36°37' W 122°22'1019.5
2017-Jun-14 17:00N 36°28' W 122°17'1019.3
2017-Jun-14 16:30N 36°19' W 122°12'918.7
2017-Jun-14 16:00N 36°11' W 122°07'918.3
2017-Jun-14 15:30N 36°03' W 122°02'918.2
2017-Jun-14 15:00N 35°54' W 121°57'918.3
2017-Jun-14 14:30N 35°46' W 121°51'1918.7
2017-Jun-14 13:30N 35°31' W 121°39'1019.4
2017-Jun-14 13:00N 35°22' W 121°33'1019.3
2017-Jun-14 12:31N 35°14' W 121°27'918.9
2017-Jun-14 12:00N 35°06' W 121°21'1019.1
2017-Jun-14 11:31N 34°58' W 121°15'919.0
2017-Jun-14 11:01N 34°50' W 121°09'1019.0
2017-Jun-14 10:30N 34°42' W 121°03'1019.0
2017-Jun-14 10:00N 34°33' W 120°56'918.6
2017-Jun-14 09:30N 34°26' W 120°49'918.4
2017-Jun-14 08:59N 34°23' W 120°38'918.2
2017-Jun-14 08:30N 34°21' W 120°28'919.4
2017-Jun-14 08:01N 34°18' W 120°17'1020.5
2017-Jun-14 07:30N 34°16' W 120°05'1021.0
2017-Jun-14 07:00N 34°13' W 119°53'1019.8
2017-Jun-14 06:30N 34°10' W 119°41'1020.3
2017-Jun-14 06:00N 34°08' W 119°29'1019.5
2017-Jun-14 05:29N 34°05' W 119°18'817.4
2017-Jun-14 05:00N 34°01' W 119°09'715.0
2017-Jun-14 04:31N 33°57' W 119°01'612.1
2017-Jun-14 04:00N 33°54' W 118°55'611.6
2017-Jun-14 03:31N 33°51' W 118°48'611.6
2017-Jun-14 03:01N 33°49' W 118°42'611.7
2017-Jun-14 02:31N 33°46' W 118°36'611.6
2017-Jun-14 02:00N 33°43' W 118°30'611.8
2017-Jun-14 01:30N 33°40' W 118°24'611.2
2017-Jun-14 01:01N 33°38' W 118°17'5 9.5
2017-Jun-14 00:31N 33°43' W 118°15'2 4.0
2017-Jun-13 23:58N 33°45' W 118°16'0 0.0
2017-Jun-13 23:25N 33°45' W 118°16'0 0.0
2017-Jun-13 22:58N 33°45' W 118°16'0 0.0
2017-Jun-13 22:28N 33°45' W 118°16'0 0.0
2017-Jun-13 21:58N 33°45' W 118°16'0 0.0
2017-Jun-13 21:13N 33°45' W 118°16'0 0.0
2017-Jun-13 20:55N 33°45' W 118°16'0 0.0
2017-Jun-13 20:25N 33°45' W 118°16'0 0.0
2017-Jun-13 19:55N 33°45' W 118°16'0 0.0
2017-Jun-13 19:25N 33°45' W 118°16'0 0.0
2017-Jun-13 18:55N 33°45' W 118°16'0 0.0
2017-Jun-13 18:28N 33°45' W 118°16'0 0.0
2017-Jun-13 17:55N 33°45' W 118°16'0 0.0
2017-Jun-13 17:19N 33°45' W 118°16'0 0.0
2017-Jun-13 14:49N 33°45' W 118°16'0 0.0
2017-Jun-13 12:49N 33°45' W 118°16'0 0.0
2017-Jun-13 12:07N 33°45' W 118°16'0 0.0
2017-Jun-13 11:37N 33°45' W 118°16'0 0.0
2017-Jun-13 10:37N 33°45' W 118°16'0 0.0
2017-Jun-13 10:25N 33°45' W 118°16'0 0.0
2017-Jun-13 09:55N 33°45' W 118°16'0 0.0
2017-Jun-13 09:25N 33°45' W 118°16'0 0.0
2017-Jun-13 08:31N 33°45' W 118°16'0 0.0
2017-Jun-13 06:25N 33°45' W 118°16'0 0.0
2017-Jun-13 05:55N 33°45' W 118°16'0 0.0
2017-Jun-13 05:25N 33°45' W 118°16'0 0.0
2017-Jun-13 04:55N 33°45' W 118°16'0 0.0
2017-Jun-13 04:16N 33°45' W 118°16'0 0.0
2017-Jun-13 03:55N 33°45' W 118°16'0 0.0
2017-Jun-13 03:25N 33°45' W 118°16'0 0.0
2017-Jun-13 02:55N 33°45' W 118°16'0 0.0
2017-Jun-13 02:19N 33°45' W 118°16'0 0.0
2017-Jun-13 01:58N 33°45' W 118°16'0 0.0
2017-Jun-13 01:28N 33°45' W 118°16'0 0.0
2017-Jun-13 00:55N 33°45' W 118°16'0 0.0
2017-Jun-13 00:19N 33°45' W 118°16'0 0.0
2017-Jun-12 23:58N 33°45' W 118°16'0 0.0
2017-Jun-12 23:28N 33°45' W 118°16'0 0.0
2017-Jun-12 22:55N 33°45' W 118°16'0 0.0
2017-Jun-12 22:28N 33°45' W 118°16'0 0.0
2017-Jun-12 21:55N 33°45' W 118°16'0 0.0
2017-Jun-12 20:49N 33°45' W 118°16'0 0.0
2017-Jun-12 18:25N 33°45' W 118°16'0 0.0
2017-Jun-11 12:32N 33°45' W 118°16'0 0.9
2017-Jun-11 12:13N 33°45' W 118°16'1 2.6
2017-Jun-11 11:45N 33°44' W 118°16'2 5.8
2017-Jun-11 11:30N 33°43' W 118°15'4 7.2
2017-Jun-11 10:57N 33°39' W 118°15'3 7.9
2017-Jun-11 10:30N 33°36' W 118°18'510.6
2017-Jun-11 10:00N 33°36' W 118°25'510.6
2017-Jun-11 09:30N 33°36' W 118°31'511.0
2017-Jun-11 09:00N 33°37' W 118°38'611.1
2017-Jun-11 08:31N 33°37' W 118°44'611.0
2017-Jun-11 08:00N 33°37' W 118°51'611.0
2017-Jun-11 07:31N 33°38' W 118°58'611.0
2017-Jun-11 07:00N 33°38' W 119°04'612.7
2017-Jun-11 06:30N 33°38' W 119°12'714.4
2017-Jun-11 06:00N 33°38' W 119°20'714.4
2017-Jun-11 05:30N 33°38' W 119°29'815.8
2017-Jun-11 05:00N 33°38' W 119°39'916.4
2017-Jun-11 04:29N 33°38' W 119°49'816.0
2017-Jun-11 04:00N 33°38' W 119°58'916.3
2017-Jun-11 03:27N 33°38' W 120°09'715.8
2017-Jun-11 02:59N 33°38' W 120°18'815.9
2017-Jun-11 02:29N 33°38' W 120°27'816.3
2017-Jun-11 02:01N 33°38' W 120°37'816.8
2017-Jun-11 01:30N 33°38' W 120°47'917.5
2017-Jun-11 01:00N 33°38' W 120°57'817.0
2017-Jun-11 00:31N 33°38' W 121°07'916.9
2017-Jun-11 00:00N 33°38' W 121°18'817.3
2017-Jun-10 23:30N 33°38' W 121°28'917.4
2017-Jun-10 23:00N 33°38' W 121°38'917.2
2017-Jun-10 22:29N 33°38' W 121°49'1116.8
2017-Jun-10 21:50N 33°38' W 122°02'916.8
2017-Jun-10 21:18N 33°38' W 122°13'617.1
2017-Jun-10 20:58N 33°38' W 122°20'1617.2
2017-Jun-10 20:02N 33°38' W 122°39'216.8
2017-Jun-10 19:55N 33°38' W 122°42'717.1
2017-Jun-10 19:30N 33°38' W 122°50'2417.6
2017-Jun-10 18:08N 33°38' W 123°19'  

Dump ship's entire track history